Time;durP1;ratioP1;P1;durP2;ratioP2;P2;SDS_P1;SDS_P2;PMS_P1;PMS_P2;Temp;Humidity;BMP_temperature;BMP_pressure;BME280_temperature;BME280_humidity;BME280_pressure;Samples;Min_cycle;Max_cycle;Signal;HPM_P1;HPM_P2
2023/07/25 00:00:35;;;;;;;17.63;12.38;;;;;;;25.00;58.09;100446.88;5033207;28;20393;-76
2023/07/25 00:03:01;;;;;;;19.50;12.90;;;;;;;25.03;58.01;100436.56;5032970;28;20409;-76
2023/07/25 00:05:26;;;;;;;17.07;13.10;;;;;;;24.88;58.63;100432.78;5032373;28;20379;-75
2023/07/25 00:07:51;;;;;;;19.20;13.55;;;;;;;25.03;57.92;100425.72;5036885;28;20716;-76
2023/07/25 00:10:18;;;;;;;18.90;14.00;;;;;;;24.94;58.45;100409.22;5032164;28;20390;-76
2023/07/25 00:12:44;;;;;;;17.88;13.20;;;;;;;25.03;58.21;100425.72;5032572;28;20481;-76
2023/07/25 00:15:10;;;;;;;20.73;14.98;;;;;;;25.05;58.59;100407.25;5032578;28;20519;-75
2023/07/25 00:17:37;;;;;;;22.83;14.50;;;;;;;25.05;58.37;100399.97;5032427;28;20394;-75
2023/07/25 00:20:03;;;;;;;19.30;13.60;;;;;;;25.18;58.12;100393.94;5032473;28;20394;-75
2023/07/25 00:22:28;;;;;;;18.50;13.63;;;;;;;25.17;57.94;100396.94;5032418;28;20804;-75
2023/07/25 00:24:53;;;;;;;19.13;14.00;;;;;;;25.19;58.02;100406.44;5031992;28;20458;-75
2023/07/25 00:27:19;;;;;;;24.37;17.93;;;;;;;24.99;58.83;100401.03;5032344;28;20477;-75
2023/07/25 00:29:46;;;;;;;22.27;15.32;;;;;;;25.02;58.88;100407.81;5032161;28;20477;-75
2023/07/25 00:32:11;;;;;;;21.73;14.57;;;;;;;25.14;58.39;100394.78;5032546;28;20366;-75
2023/07/25 00:34:37;;;;;;;23.38;15.20;;;;;;;25.10;58.52;100397.25;5032638;28;20388;-76
2023/07/25 00:37:02;;;;;;;19.67;14.53;;;;;;;25.07;58.57;100405.13;5032583;28;20381;-76
2023/07/25 00:39:28;;;;;;;20.33;15.27;;;;;;;24.98;58.81;100394.00;5032522;28;20378;-76
2023/07/25 00:41:53;;;;;;;21.13;15.55;;;;;;;24.91;59.07;100399.69;5032111;28;20418;-76
2023/07/25 00:44:19;;;;;;;22.38;15.15;;;;;;;25.07;58.61;100405.13;5032128;28;20531;-76
2023/07/25 00:46:44;;;;;;;21.27;15.07;;;;;;;25.10;58.46;100401.81;5032058;28;20389;-75
2023/07/25 00:49:10;;;;;;;22.70;14.73;;;;;;;25.17;58.14;100391.50;5031953;28;20378;-75
2023/07/25 00:51:37;;;;;;;23.20;14.50;;;;;;;25.19;58.16;100398.28;5031950;28;20481;-75
2023/07/25 00:54:03;;;;;;;21.50;14.03;;;;;;;25.15;58.49;100396.41;5031828;28;20779;-76
2023/07/25 00:56:28;;;;;;;19.05;13.98;;;;;;;24.99;58.92;100398.31;5035135;28;20417;-74
2023/07/25 00:58:54;;;;;;;20.13;14.30;;;;;;;24.92;59.11;100395.09;5032656;28;20429;-75
2023/07/25 01:01:39;;;;;;;18.95;13.77;;;;;;;24.87;58.90;100393.22;5031922;28;20382;-75
2023/07/25 01:04:05;;;;;;;20.40;13.55;;;;;;;24.88;58.77;100394.00;5033162;28;20533;-75
2023/07/25 01:06:31;;;;;;;17.80;13.47;;;;;;;25.03;58.42;100385.03;5033283;28;20776;-75
2023/07/25 01:08:56;;;;;;;18.95;13.30;;;;;;;24.92;58.32;100376.94;5032655;28;20374;-75
2023/07/25 01:11:23;;;;;;;18.97;12.17;;;;;;;24.82;58.74;100395.91;5032347;28;20374;-75
2023/07/25 01:13:50;;;;;;;19.90;12.65;;;;;;;24.75;58.66;100385.34;5031664;28;20381;-75
2023/07/25 01:16:19;;;;;;;18.77;12.70;;;;;;;24.75;58.75;100398.91;5031598;28;20866;-75
2023/07/25 01:18:45;;;;;;;17.35;12.45;;;;;;;24.73;58.47;100401.06;5031713;28;20378;-75
2023/07/25 01:21:11;;;;;;;17.67;12.18;;;;;;;24.67;58.82;100394.03;5030798;28;20382;-75
2023/07/25 01:23:38;;;;;;;15.67;12.17;;;;;;;24.79;58.30;100401.88;5030745;28;20409;-75
2023/07/25 01:26:03;;;;;;;17.43;12.70;;;;;;;24.65;58.82;100406.22;5031595;28;20374;-76
2023/07/25 01:28:29;;;;;;;16.92;13.00;;;;;;;24.64;58.57;100410.84;5030436;28;20389;-74
2023/07/25 01:30:56;;;;;;;17.08;12.65;;;;;;;24.51;59.23;100414.06;5031699;28;20381;-75
2023/07/25 01:33:21;;;;;;;17.02;12.30;;;;;;;24.47;59.09;100405.66;5031499;28;20374;-76
2023/07/25 01:35:47;;;;;;;17.13;12.50;;;;;;;24.41;59.38;100412.94;5031466;28;20375;-75
2023/07/25 01:38:12;;;;;;;15.87;12.13;;;;;;;24.32;59.59;100413.78;5030763;28;20668;-75
2023/07/25 01:40:41;;;;;;;15.73;12.00;;;;;;;24.35;59.23;100422.19;5031455;28;20448;-76
2023/07/25 01:43:07;;;;;;;16.83;12.15;;;;;;;24.13;60.02;100425.13;5031175;28;20707;-75
2023/07/25 01:45:33;;;;;;;14.93;11.48;;;;;;;24.20;59.75;100441.94;5031629;28;20448;-75
2023/07/25 01:47:59;;;;;;;16.13;11.40;;;;;;;24.14;59.57;100440.28;5031323;28;20375;-75
2023/07/25 01:50:26;;;;;;;15.55;11.68;;;;;;;24.13;59.56;100437.81;5031964;28;20380;-75
2023/07/25 01:52:52;;;;;;;15.30;10.75;;;;;;;23.88;60.04;100443.97;5031117;28;20467;-75
2023/07/25 01:55:17;;;;;;;15.27;11.40;;;;;;;24.05;59.48;100445.38;5030928;28;20410;-75
2023/07/25 01:57:43;;;;;;;19.03;11.87;;;;;;;23.97;59.75;100439.72;5029997;28;20725;-76
2023/07/25 02:00:09;;;;;;;17.92;11.23;;;;;;;23.98;59.71;100436.69;5031254;28;20470;-75
2023/07/25 02:02:34;;;;;;;15.27;11.77;;;;;;;23.80;60.55;100431.78;5031820;28;20902;-75
2023/07/25 02:04:59;;;;;;;17.27;11.05;;;;;;;23.84;60.42;100422.88;5032130;28;20415;-79
2023/07/25 02:07:25;;;;;;;18.00;11.80;;;;;;;23.87;60.64;100423.41;5032040;28;20378;-77
2023/07/25 02:09:50;;;;;;;17.63;12.23;;;;;;;23.81;60.86;100419.88;5032415;28;20374;-78
2023/07/25 02:12:16;;;;;;;17.53;12.30;;;;;;;23.94;60.56;100423.97;5032543;28;20406;-79
2023/07/25 02:14:41;;;;;;;16.63;11.82;;;;;;;23.88;61.02;100419.63;5033865;28;20458;-75
2023/07/25 02:17:07;;;;;;;17.97;12.03;;;;;;;23.80;61.44;100415.53;5035082;28;20398;-75
2023/07/25 02:19:32;;;;;;;18.73;12.27;;;;;;;23.88;61.07;100416.91;5035097;28;20374;-75
2023/07/25 02:21:58;;;;;;;17.43;11.83;;;;;;;23.79;61.46;100425.53;5034567;28;20409;-75
2023/07/25 02:24:23;;;;;;;15.95;12.45;;;;;;;23.80;61.47;100427.16;5035106;28;20393;-75
2023/07/25 02:26:48;;;;;;;17.57;12.40;;;;;;;23.88;61.14;100427.75;5036104;28;20414;-74
2023/07/25 02:29:14;;;;;;;16.40;11.50;;;;;;;23.84;61.31;100424.75;5036412;28;20370;-74
2023/07/25 02:31:39;;;;;;;17.90;12.00;;;;;;;23.94;60.93;100437.53;5035073;28;20421;-75
2023/07/25 02:34:06;;;;;;;16.13;11.82;;;;;;;23.78;61.90;100442.84;5034812;28;20378;-74
2023/07/25 02:36:31;;;;;;;16.35;12.30;;;;;;;23.59;62.28;100430.88;5034388;28;20370;-75
2023/07/25 02:38:57;;;;;;;18.05;12.70;;;;;;;23.70;61.86;100421.72;5034021;28;20691;-75
2023/07/25 02:41:23;;;;;;;17.25;12.57;;;;;;;23.90;61.06;100414.78;5034828;28;20448;-75
2023/07/25 02:43:48;;;;;;;19.47;12.43;;;;;;;24.10;60.34;100409.41;5034951;28;20394;-75
2023/07/25 02:46:13;;;;;;;21.23;12.80;;;;;;;24.12;60.39;100403.72;5035678;28;20390;-75
2023/07/25 02:48:39;;;;;;;19.47;13.13;;;;;;;24.08;60.66;100403.44;5034010;28;20388;-75
2023/07/25 02:51:05;;;;;;;18.67;13.10;;;;;;;24.04;60.51;100407.78;5032496;28;20418;-75
2023/07/25 02:53:30;;;;;;;16.50;12.30;;;;;;;24.01;60.76;100421.84;5048445;28;20718;-75
2023/07/25 02:55:55;;;;;;;17.27;12.57;;;;;;;23.96;61.05;100438.06;5051998;28;20463;-76
2023/07/25 02:58:21;;;;;;;21.20;13.20;;;;;;;23.79;61.71;100441.78;5053544;28;20847;-76
2023/07/25 03:00:49;;;;;;;17.60;12.33;;;;;;;23.75;61.97;100431.72;5052059;28;20373;-76
2023/07/25 03:03:15;;;;;;;20.33;13.00;;;;;;;23.84;61.75;100435.56;5052813;28;20498;-77
2023/07/25 03:05:41;;;;;;;19.70;13.00;;;;;;;23.88;61.62;100431.28;5054266;28;20384;-78
2023/07/25 03:08:06;;;;;;;18.50;13.17;;;;;;;23.96;61.29;100427.22;5054691;28;20377;-76
2023/07/25 03:10:32;;;;;;;17.77;13.73;;;;;;;24.05;61.12;100422.94;5054737;28;20387;-78
2023/07/25 03:12:58;;;;;;;19.02;13.55;;;;;;;24.03;61.24;100425.09;5054115;28;20373;-76
2023/07/25 03:15:24;;;;;;;18.53;13.07;;;;;;;23.95;61.34;100420.19;5053091;28;20779;-75
2023/07/25 03:17:49;;;;;;;18.45;12.75;;;;;;;23.92;61.54;100435.06;5053814;28;20735;-76
2023/07/25 03:20:15;;;;;;;18.90;13.13;;;;;;;23.97;61.26;100447.81;5053833;28;20377;-76
2023/07/25 03:22:40;;;;;;;18.70;13.47;;;;;;;23.80;61.93;100453.44;5053503;28;20885;-75
2023/07/25 03:25:06;;;;;;;19.08;13.40;;;;;;;23.82;61.77;100451.28;5053326;28;20381;-75
2023/07/25 03:27:32;;;;;;;17.98;13.65;;;;;;;23.84;61.80;100436.41;5053645;28;20381;-75
2023/07/25 03:29:58;;;;;;;20.75;13.02;;;;;;;23.90;61.59;100426.41;5053656;28;20447;-76
2023/07/25 03:32:23;;;;;;;18.73;13.07;;;;;;;23.93;61.45;100436.72;5053613;28;20818;-75
2023/07/25 03:34:48;;;;;;;21.08;14.32;;;;;;;24.00;61.41;100439.16;5053403;28;20376;-76
2023/07/25 03:37:14;;;;;;;21.80;14.23;;;;;;;23.91;61.58;100438.03;5053453;28;20380;-75
2023/07/25 03:39:39;;;;;;;18.00;14.03;;;;;;;23.81;62.00;100438.84;5053994;28;20372;-75
2023/07/25 03:42:05;;;;;;;18.60;13.30;;;;;;;23.82;62.36;100437.75;5052430;28;20396;-75
2023/07/25 03:44:31;;;;;;;19.95;13.68;;;;;;;23.88;62.04;100447.53;5053724;28;20463;-75
2023/07/25 03:46:56;;;;;;;21.03;13.73;;;;;;;23.81;62.23;100446.97;5053157;28;20377;-75
2023/07/25 03:49:22;;;;;;;18.48;14.20;;;;;;;23.81;62.35;100442.34;5053362;28;20368;-75
2023/07/25 03:51:47;;;;;;;23.30;14.30;;;;;;;23.77;62.26;100434.97;5053298;28;20448;-76
2023/07/25 03:54:13;;;;;;;22.03;13.13;;;;;;;23.56;63.09;100442.22;5053229;28;20395;-75
2023/07/25 03:56:38;;;;;;;20.75;14.25;;;;;;;23.70;62.87;100440.66;5053535;28;20450;-75
2023/07/25 03:59:04;;;;;;;18.13;13.80;;;;;;;23.87;62.24;100450.50;5053435;28;20713;-76
2023/07/25 04:01:30;;;;;;;21.40;13.80;;;;;;;24.01;61.89;100441.59;5050672;28;20403;-77
2023/07/25 04:03:55;;;;;;;19.92;13.98;;;;;;;24.22;61.21;100425.41;5052664;28;20710;-75
2023/07/25 04:06:21;;;;;;;23.40;14.33;;;;;;;24.33;60.82;100428.97;5053091;28;20373;-76
2023/07/25 04:08:46;;;;;;;23.77;14.40;;;;;;;24.38;60.62;100431.66;5055125;28;20955;-76
2023/07/25 04:11:13;;;;;;;21.93;13.53;;;;;;;24.42;60.53;100424.63;5052910;28;20368;-77
2023/07/25 04:13:38;;;;;;;20.58;14.18;;;;;;;24.52;60.46;100437.34;5053809;28;20530;-75
2023/07/25 04:16:04;;;;;;;18.50;13.57;;;;;;;24.55;60.38;100445.00;5053830;28;20380;-75
2023/07/25 04:18:30;;;;;;;20.75;13.88;;;;;;;24.47;60.45;100450.91;5054762;28;20453;-75
2023/07/25 04:20:56;;;;;;;19.07;13.10;;;;;;;24.40;60.54;100459.31;5053103;28;20377;-75
2023/07/25 04:23:26;;;;;;;20.27;13.75;;;;;;;24.49;60.29;100463.09;5052521;28;20518;-74
2023/07/25 04:25:51;;;;;;;19.63;13.02;;;;;;;24.47;60.33;100457.16;5052819;28;20381;-75
2023/07/25 04:28:17;;;;;;;20.65;13.88;;;;;;;24.55;60.32;100459.34;5053139;28;20470;-77
2023/07/25 04:30:43;;;;;;;18.70;14.03;;;;;;;24.71;60.04;100451.22;5051797;28;20442;-75
2023/07/25 04:33:08;;;;;;;21.23;13.80;;;;;;;24.75;60.08;100465.88;5053973;28;20373;-76
2023/07/25 04:35:34;;;;;;;18.20;13.87;;;;;;;24.76;60.11;100460.19;5054184;28;20450;-76
2023/07/25 04:37:59;;;;;;;20.00;14.23;;;;;;;24.64;60.48;100466.94;5051865;28;20409;-75
2023/07/25 04:40:25;;;;;;;20.65;14.68;;;;;;;24.53;61.02;100472.34;5050229;28;20853;-76
2023/07/25 04:42:51;;;;;;;19.58;14.00;;;;;;;24.74;60.64;100470.47;5053108;28;20404;-75
2023/07/25 04:45:17;;;;;;;22.40;14.63;;;;;;;24.88;60.15;100462.59;5051869;28;21003;-74
2023/07/25 04:47:42;;;;;;;22.03;15.20;;;;;;;25.07;59.90;100453.94;5052288;28;20449;-75
2023/07/25 04:50:08;;;;;;;23.45;16.00;;;;;;;25.13;59.64;100441.97;5052257;28;20770;-74
2023/07/25 04:52:34;;;;;;;22.45;15.48;;;;;;;25.22;59.30;100432.19;5042167;28;20368;-75
2023/07/25 04:54:59;;;;;;;21.47;15.03;;;;;;;25.32;59.12;100444.97;5012592;28;20852;-75
2023/07/25 04:57:25;;;;;;;23.13;14.97;;;;;;;25.17;59.38;100457.44;5012310;28;20411;-75
2023/07/25 04:59:50;;;;;;;25.95;17.38;;;;;;;25.22;59.38;100459.31;5011901;28;20372;-75
2023/07/25 05:02:17;;;;;;;22.63;15.23;;;;;;;25.47;59.17;100454.97;5012062;28;20396;-75
2023/07/25 05:04:43;;;;;;;20.77;14.70;;;;;;;25.64;58.59;100450.03;5020526;28;20382;-76
2023/07/25 05:07:09;;;;;;;21.07;14.73;;;;;;;25.76;58.59;100441.53;5021774;28;20703;-75
2023/07/25 05:09:34;;;;;;;21.53;14.67;;;;;;;25.91;57.84;100448.78;5019714;28;20412;-76
2023/07/25 05:12:00;;;;;;;19.83;14.77;;;;;;;26.02;57.51;100433.28;5019882;28;20827;-75
2023/07/25 05:14:25;;;;;;;19.63;14.60;;;;;;;26.17;57.23;100435.13;5021385;28;20378;-75
2023/07/25 05:16:51;;;;;;;21.97;15.13;;;;;;;26.28;56.80;100428.53;5021193;28;20840;-74
2023/07/25 05:19:16;;;;;;;21.17;15.38;;;;;;;26.32;56.33;100435.00;5025483;28;20385;-75
2023/07/25 05:21:42;;;;;;;19.90;15.00;;;;;;;26.33;56.83;100433.94;5031303;28;20378;-75
2023/07/25 05:24:07;;;;;;;20.23;14.93;;;;;;;26.46;56.41;100441.44;5029372;28;20855;-75
2023/07/25 05:26:33;;;;;;;22.00;15.00;;;;;;;26.56;56.17;100432.41;5032263;28;20367;-75
2023/07/25 05:28:58;;;;;;;23.40;15.38;;;;;;;26.66;56.19;100413.31;5040380;28;20372;-77
2023/07/25 05:31:24;;;;;;;23.13;15.13;;;;;;;26.69;55.92;100417.38;5048805;28;20743;-74
2023/07/25 05:33:49;;;;;;;18.20;14.70;;;;;;;26.76;55.95;100415.13;5050858;28;20364;-73
2023/07/25 05:36:14;;;;;;;20.10;14.80;;;;;;;26.89;55.44;100406.28;5045576;28;20374;-76
2023/07/25 05:38:40;;;;;;;19.67;14.33;;;;;;;26.91;54.85;100399.78;5042807;28;20383;-75
2023/07/25 05:41:06;;;;;;;18.70;13.97;;;;;;;27.07;54.68;100383.00;5049935;28;20368;-75
2023/07/25 05:43:32;;;;;;;19.20;14.25;;;;;;;27.21;53.36;100376.88;5050801;28;20393;-76
2023/07/25 05:45:57;;;;;;;20.73;15.60;;;;;;;27.42;52.82;100380.19;5050716;28;20377;-74
2023/07/25 05:48:23;;;;;;;19.20;13.90;;;;;;;27.51;52.13;100377.63;5050266;28;20455;-75
2023/07/25 05:50:52;;;;;;;17.73;13.73;;;;;;;27.65;51.90;100371.16;5049017;28;20381;-77
2023/07/25 05:53:18;;;;;;;20.27;13.98;;;;;;;27.88;50.89;100365.97;5047416;28;20376;-75
2023/07/25 05:55:45;;;;;;;23.65;14.15;;;;;;;27.99;50.75;100380.28;5046334;28;20415;-75
2023/07/25 05:58:13;;;;;;;19.20;13.65;;;;;;;28.17;49.32;100376.72;5045999;28;20919;-75
2023/07/25 06:00:39;;;;;;;17.42;13.35;;;;;;;28.22;48.15;100387.53;5012499;28;20441;-74
2023/07/25 06:03:05;;;;;;;22.57;14.07;;;;;;;28.28;48.72;100373.84;5016196;28;20493;-76
2023/07/25 06:05:30;;;;;;;19.05;13.60;;;;;;;28.42;48.11;100369.25;5014272;28;20417;-75
2023/07/25 06:07:56;;;;;;;19.63;13.75;;;;;;;28.51;47.42;100370.19;5017810;28;20497;-74
2023/07/25 06:10:21;;;;;;;19.17;14.50;;;;;;;28.51;47.75;100375.63;5015863;28;20398;-73
2023/07/25 06:12:47;;;;;;;20.60;14.53;;;;;;;28.59;47.27;100387.78;5022872;28;21972;-74
2023/07/25 06:15:12;;;;;;;21.53;14.30;;;;;;;28.60;47.40;100387.50;5013268;28;20748;-74
2023/07/25 06:17:38;;;;;;;18.53;13.80;;;;;;;28.72;47.67;100387.03;5020474;28;20409;-74
2023/07/25 06:20:04;;;;;;;19.40;14.23;;;;;;;28.80;46.84;100388.25;5019128;28;20404;-75
2023/07/25 06:22:29;;;;;;;17.63;13.30;;;;;;;28.91;45.98;100402.50;5012229;28;20838;-73
2023/07/25 06:24:55;;;;;;;21.37;14.43;;;;;;;29.12;45.56;100395.56;5013611;28;20392;-74
2023/07/25 06:27:20;;;;;;;21.33;14.30;;;;;;;29.21;45.27;100394.88;5015565;28;20626;-76
2023/07/25 06:29:46;;;;;;;22.48;14.20;;;;;;;29.33;45.19;100384.25;5017313;28;20374;-75
2023/07/25 06:32:12;;;;;;;20.67;13.70;;;;;;;29.33;45.42;100371.44;5019548;28;20402;-75
2023/07/25 06:34:37;;;;;;;22.43;14.07;;;;;;;29.58;45.26;100374.72;5014418;28;20371;-74
2023/07/25 06:37:03;;;;;;;19.63;14.70;;;;;;;29.62;44.86;100374.94;5018494;28;20703;-75
2023/07/25 06:39:28;;;;;;;17.85;13.45;;;;;;;29.63;44.75;100377.34;5018655;28;20486;-76
2023/07/25 06:41:53;;;;;;;20.20;14.23;;;;;;;29.90;44.34;100381.16;5016600;28;20406;-74
2023/07/25 06:44:19;;;;;;;21.27;13.77;;;;;;;29.71;44.53;100381.28;5011744;28;20395;-73
2023/07/25 06:46:45;;;;;;;21.30;15.20;;;;;;;29.46;45.12;100390.81;5010352;28;20882;-74
2023/07/25 06:49:11;;;;;;;23.15;15.15;;;;;;;29.39;45.42;100399.44;5011357;28;20705;-74
2023/07/25 06:51:36;;;;;;;17.77;14.83;;;;;;;29.54;45.59;100385.47;5010531;28;20376;-74
2023/07/25 06:54:02;;;;;;;20.13;15.23;;;;;;;29.52;45.54;100393.16;5010419;28;20372;-74
2023/07/25 06:56:27;;;;;;;19.10;14.65;;;;;;;29.50;45.73;100392.66;5011318;28;20384;-73
2023/07/25 06:58:53;;;;;;;19.48;14.00;;;;;;;29.71;45.46;100393.03;5011383;28;20499;-76
2023/07/25 07:01:18;;;;;;;17.83;13.63;;;;;;;29.98;44.69;100391.38;5014229;28;20841;-77
2023/07/25 07:03:44;;;;;;;17.13;12.97;;;;;;;30.03;44.48;100382.25;5016042;28;20400;-77
2023/07/25 07:06:09;;;;;;;18.17;13.10;;;;;;;30.01;44.31;100379.81;5015602;28;20376;-74
2023/07/25 07:08:35;;;;;;;19.23;13.80;;;;;;;30.05;44.29;100374.53;5014979;28;20405;-76
2023/07/25 07:11:00;;;;;;;18.70;13.20;;;;;;;30.20;44.20;100367.91;5015848;28;20789;-76
2023/07/25 07:13:27;;;;;;;20.45;13.57;;;;;;;30.33;43.54;100363.50;5015815;28;20368;-75
2023/07/25 07:15:53;;;;;;;18.45;14.18;;;;;;;30.24;43.46;100361.50;5013847;28;20872;-76
2023/07/25 07:18:18;;;;;;;17.77;13.90;;;;;;;30.07;43.87;100370.38;5012830;28;20415;-76
2023/07/25 07:20:48;;;;;;;20.58;14.00;;;;;;;30.15;43.78;100365.31;5013486;28;20396;-76
2023/07/25 07:23:13;;;;;;;19.27;13.90;;;;;;;30.25;43.72;100363.13;5014036;28;20478;-76
2023/07/25 07:25:40;;;;;;;19.50;13.63;;;;;;;30.30;43.80;100360.25;5013624;28;20384;-76
2023/07/25 07:28:06;;;;;;;18.50;13.68;;;;;;;30.20;43.65;100357.78;5014157;28;20390;-76
2023/07/25 07:30:31;;;;;;;21.37;14.17;;;;;;;30.25;43.79;100346.72;5014188;28;20380;-75
2023/07/25 07:32:57;;;;;;;19.80;14.20;;;;;;;30.55;43.90;100344.34;5013665;28;20954;-75
2023/07/25 07:35:22;;;;;;;19.20;13.65;;;;;;;30.79;43.49;100343.16;5013791;28;20368;-75
2023/07/25 07:37:48;;;;;;;18.43;13.53;;;;;;;31.03;42.54;100343.63;5013500;28;20757;-76
2023/07/25 07:40:14;;;;;;;18.87;14.07;;;;;;;31.26;42.43;100338.06;5012307;28;20740;-76
2023/07/25 07:42:39;;;;;;;18.07;13.90;;;;;;;31.24;42.24;100321.94;5013412;28;20892;-75
2023/07/25 07:45:05;;;;;;;20.70;14.20;;;;;;;31.42;42.33;100330.16;5013267;28;20411;-76
2023/07/25 07:47:31;;;;;;;18.23;13.85;;;;;;;31.41;42.07;100326.63;5013048;28;20979;-76
2023/07/25 07:49:56;;;;;;;22.00;14.57;;;;;;;31.34;42.03;100325.50;5013520;28;20376;-76
2023/07/25 07:52:22;;;;;;;19.30;14.07;;;;;;;31.51;41.83;100324.75;5014436;28;20864;-77
2023/07/25 07:54:47;;;;;;;20.27;13.53;;;;;;;31.39;41.94;100331.63;5017863;28;20435;-76
2023/07/25 07:57:13;;;;;;;18.55;13.55;;;;;;;31.22;41.87;100331.59;5015922;28;20408;-76
2023/07/25 07:59:43;;;;;;;15.95;13.50;;;;;;;31.30;41.97;100325.34;5013837;28;20391;-77
2023/07/25 08:02:08;;;;;;;21.60;14.20;;;;;;;31.48;42.19;100319.91;5013700;28;20881;-75
2023/07/25 08:04:33;;;;;;;16.70;13.23;;;;;;;31.69;41.88;100320.06;5013867;28;20384;-77
2023/07/25 08:06:59;;;;;;;16.97;13.63;;;;;;;31.57;41.74;100321.53;5013490;28;20960;-76
2023/07/25 08:09:24;;;;;;;18.77;12.93;;;;;;;31.61;41.58;100322.50;5013462;28;20368;-76
2023/07/25 08:11:50;;;;;;;16.33;13.43;;;;;;;31.62;41.08;100320.56;5012870;28;20380;-76
2023/07/25 08:14:15;;;;;;;16.90;13.33;;;;;;;31.78;41.11;100309.91;5016315;28;20384;-76
2023/07/25 08:16:41;;;;;;;20.10;13.50;;;;;;;32.00;40.90;100308.97;5012638;28;20384;-75
2023/07/25 08:19:06;;;;;;;18.00;13.68;;;;;;;32.19;41.22;100301.19;5013226;28;20430;-75
2023/07/25 08:21:32;;;;;;;17.27;13.10;;;;;;;32.41;41.07;100307.59;5013489;28;20879;-80
2023/07/25 08:23:58;;;;;;;16.83;13.13;;;;;;;32.46;40.37;100306.63;5012404;28;20400;-75
2023/07/25 08:26:23;;;;;;;15.83;12.37;;;;;;;32.13;39.99;100312.69;5012389;28;20380;-76
2023/07/25 08:28:49;;;;;;;15.40;12.13;;;;;;;32.28;40.44;100308.59;5012496;28;20503;-76
2023/07/25 08:31:14;;;;;;;18.00;12.30;;;;;;;32.48;40.11;100309.84;5012815;28;20384;-75
2023/07/25 08:33:42;;;;;;;15.63;12.97;;;;;;;32.26;40.30;100305.38;5014837;28;20440;-76
2023/07/25 08:36:09;;;;;;;16.65;12.35;;;;;;;32.56;40.13;100306.25;5021452;28;20431;-75
2023/07/25 08:38:34;;;;;;;15.65;12.32;;;;;;;32.74;39.66;100299.59;4945786;28;21001;-77
2023/07/25 08:41:19;;;;;;;15.53;12.23;;;;;;;32.89;39.37;100300.97;5032950;28;20387;-76
2023/07/25 08:43:44;;;;;;;17.02;12.30;;;;;;;33.02;39.54;100303.81;5043554;28;20415;-74
2023/07/25 08:46:11;;;;;;;15.57;12.15;;;;;;;32.95;39.15;100293.34;5051270;28;20369;-75
2023/07/25 08:48:39;;;;;;;15.52;11.68;;;;;;;33.20;39.48;100288.84;5050829;28;20385;-75
2023/07/25 08:51:08;;;;;;;14.85;12.13;;;;;;;33.38;39.01;100295.03;5051371;28;20377;-76
2023/07/25 08:53:40;;;;;;;17.33;13.00;;;;;;;33.41;39.58;100286.13;5051338;28;20377;-76
2023/07/25 08:56:07;;;;;;;15.90;12.05;;;;;;;33.47;39.93;100282.03;5052982;28;20482;-75
2023/07/25 08:58:33;;;;;;;16.98;12.23;;;;;;;33.34;38.99;100278.41;5052132;28;20428;-75
2023/07/25 09:00:59;;;;;;;15.52;12.25;;;;;;;33.38;39.33;100278.56;5049532;28;20408;-75
2023/07/25 09:03:25;;;;;;;17.03;12.80;;;;;;;33.54;39.24;100270.50;5049242;28;20396;-76
2023/07/25 09:05:51;;;;;;;16.85;12.57;;;;;;;33.67;39.17;100277.72;5049139;28;20440;-76
2023/07/25 09:08:17;;;;;;;17.53;12.57;;;;;;;33.88;38.83;100269.41;5048828;28;20483;-76
2023/07/25 09:10:45;;;;;;;18.50;13.03;;;;;;;33.83;38.59;100277.06;5048861;28;20925;-74
2023/07/25 09:13:11;;;;;;;15.07;12.57;;;;;;;33.83;38.53;100266.88;5049110;28;20372;-75
2023/07/25 09:15:36;;;;;;;16.57;12.17;;;;;;;33.88;38.38;100255.66;5050211;28;20381;-75
2023/07/25 09:18:02;;;;;;;16.02;12.15;;;;;;;33.99;38.42;100258.78;5044827;28;20420;-75
2023/07/25 09:20:27;;;;;;;15.55;12.45;;;;;;;34.03;38.52;100250.66;5050177;28;20380;-75
2023/07/25 09:22:53;;;;;;;15.02;12.52;;;;;;;34.03;38.29;100250.66;5044790;28;20392;-75
2023/07/25 09:25:18;;;;;;;18.13;12.73;;;;;;;34.11;38.03;100249.00;5050632;28;20385;-76
2023/07/25 09:27:45;;;;;;;18.20;12.07;;;;;;;34.26;37.89;100246.38;5051836;28;20471;-77
2023/07/25 09:30:12;;;;;;;15.48;11.90;;;;;;;34.31;37.27;100250.09;5037109;28;20448;-73
2023/07/25 09:32:38;;;;;;;15.77;11.98;;;;;;;34.28;37.28;100252.34;5029149;28;20870;-76
2023/07/25 09:35:08;;;;;;;16.77;12.10;;;;;;;34.38;37.34;100242.84;5050387;28;20475;-76
2023/07/25 09:37:33;;;;;;;14.82;12.02;;;;;;;34.38;37.23;100236.56;5051705;28;20377;-75
2023/07/25 09:39:59;;;;;;;14.00;11.63;;;;;;;34.44;37.75;100232.41;5048354;28;20441;-76
2023/07/25 09:42:25;;;;;;;13.85;11.88;;;;;;;34.41;37.40;100231.16;5039529;28;20424;-76
2023/07/25 09:44:52;;;;;;;17.15;12.27;;;;;;;34.42;37.49;100237.47;5051847;28;20373;-75
2023/07/25 09:47:23;;;;;;;14.30;12.00;;;;;;;34.33;37.75;100228.53;5051295;28;20387;-74
2023/07/25 09:49:49;;;;;;;16.75;13.18;;;;;;;34.40;37.98;100226.81;5050517;28;20734;-75
2023/07/25 09:52:15;;;;;;;15.68;12.18;;;;;;;34.47;37.90;100223.50;5051095;28;20387;-75
2023/07/25 09:54:41;;;;;;;15.82;12.18;;;;;;;34.58;38.03;100219.13;5037413;28;20869;-77
2023/07/25 09:57:07;;;;;;;13.90;12.20;;;;;;;34.69;37.55;100222.25;5051607;28;20469;-75
2023/07/25 09:59:34;;;;;;;16.08;13.50;;;;;;;34.79;37.84;100218.19;5050530;28;20441;-75
2023/07/25 10:02:00;;;;;;;16.05;12.23;;;;;;;34.79;37.57;100213.53;5051402;28;20518;-77
2023/07/25 10:04:26;;;;;;;17.35;12.05;;;;;;;34.92;37.95;100203.28;5051212;28;20384;-75
2023/07/25 10:06:52;;;;;;;16.57;12.80;;;;;;;34.97;37.57;100211.31;5049207;28;20373;-75
2023/07/25 10:09:19;;;;;;;15.80;12.73;;;;;;;35.03;37.75;100193.38;5050308;28;20861;-78
2023/07/25 10:11:46;;;;;;;15.38;11.98;;;;;;;35.19;37.44;100192.66;5051330;28;20372;-76
2023/07/25 10:14:11;;;;;;;15.87;12.00;;;;;;;35.21;37.03;100188.41;5050379;28;20380;-76
2023/07/25 10:16:38;;;;;;;16.08;12.20;;;;;;;35.26;37.24;100186.56;5024430;28;20949;-77
2023/07/25 10:19:05;;;;;;;15.13;12.00;;;;;;;35.30;36.64;100184.72;5050228;28;20395;-76
2023/07/25 10:21:49;;;;;;;19.75;11.93;;;;;;;35.25;36.62;100184.97;5054448;28;20443;-75
2023/07/25 10:24:15;;;;;;;13.95;11.00;;;;;;;35.34;36.51;100191.13;5055741;28;20389;-77
2023/07/25 10:26:59;;;;;;;16.35;11.07;;;;;;;35.51;35.83;100187.25;5058991;28;20385;-75
2023/07/25 10:29:36;;;;;;;14.20;11.73;;;;;;;35.58;36.03;100173.66;5054486;28;20377;-77
2023/07/25 10:32:02;;;;;;;13.48;10.73;;;;;;;35.71;36.19;100174.44;5055365;28;20377;-75
2023/07/25 10:34:51;;;;;;;15.13;11.32;;;;;;;35.70;35.67;100161.81;5028768;28;20411;-76
2023/07/25 10:37:23;;;;;;;14.27;11.23;;;;;;;35.83;35.84;100159.78;5052772;28;20384;-75
2023/07/25 10:40:08;;;;;;;15.25;11.10;;;;;;;36.00;35.93;100159.44;5030589;28;20376;-76
2023/07/25 10:42:57;;;;;;;15.13;11.30;;;;;;;35.98;35.06;100150.72;5033105;28;20400;-80
2023/07/25 10:45:29;;;;;;;13.90;11.20;;;;;;;36.06;35.17;100159.97;5055201;28;20380;-76
2023/07/25 10:47:59;;;;;;;17.38;11.40;;;;;;;36.06;35.44;100151.69;5054833;28;20405;-76
2023/07/25 10:50:51;;;;;;;14.90;10.88;;;;;;;36.05;35.32;100148.13;5055095;28;20442;-77
2023/07/25 10:53:21;;;;;;;15.25;10.80;;;;;;;36.09;34.99;100142.69;5052917;28;20389;-74
2023/07/25 10:56:05;;;;;;;15.25;11.10;;;;;;;36.20;35.01;100129.19;5054408;28;20458;-75
2023/07/25 10:58:32;;;;;;;14.38;11.00;;;;;;;36.30;34.97;100123.91;5054745;28;20745;-77
2023/07/25 11:00:58;;;;;;;13.90;10.80;;;;;;;36.23;35.34;100120.19;5054345;28;20392;-75
2023/07/25 11:03:29;;;;;;;13.00;10.60;;;;;;;36.21;34.80;100123.28;5053349;28;20964;-74
2023/07/25 11:06:06;;;;;;;14.50;11.15;;;;;;;36.29;34.82;100118.75;5054020;28;20433;-75